createdAt,value
2023-03-06T00:00:02.274Z,1007.2
2023-03-06T00:01:02.263Z,1007.2
2023-03-06T00:02:01.813Z,1007.2
2023-03-06T00:03:01.835Z,1007.2
2023-03-06T00:04:02.964Z,1007.1
2023-03-06T00:05:01.688Z,1007.1
2023-03-06T00:06:03.037Z,1007.1
2023-03-06T00:07:01.759Z,1007.1
2023-03-06T00:08:01.817Z,1007
2023-03-06T00:09:02.803Z,1007.1
2023-03-06T00:10:02.647Z,1007.1
2023-03-06T00:11:02.711Z,1007
2023-03-06T00:12:02.592Z,1007
2023-03-06T00:13:02.613Z,1006.9
2023-03-06T00:14:02.430Z,1006.9
2023-03-06T00:15:06.095Z,1006.9
2023-03-06T00:16:02.021Z,1006.9
2023-03-06T00:17:02.178Z,1006.9
2023-03-06T00:18:02.232Z,1006.9
2023-03-06T00:19:02.064Z,1006.9
2023-03-06T00:20:02.071Z,1006.9
2023-03-06T00:21:01.854Z,1006.9
2023-03-06T00:22:01.850Z,1006.9
2023-03-06T00:23:01.695Z,1006.9
2023-03-06T00:24:03.168Z,1006.9
2023-03-06T00:25:01.902Z,1006.9
2023-03-06T00:26:01.899Z,1006.9
2023-03-06T00:27:01.743Z,1006.8
2023-03-06T00:28:03.247Z,1006.9
2023-03-06T00:29:02.061Z,1006.9
2023-03-06T00:30:02.117Z,1006.8
2023-03-06T00:31:01.897Z,1006.9
2023-03-06T00:32:02.025Z,1006.9
2023-03-06T00:33:01.840Z,1006.9
2023-03-06T00:34:02.728Z,1006.9
2023-03-06T00:35:02.680Z,1006.9
2023-03-06T00:36:02.713Z,1006.9
2023-03-06T00:37:02.570Z,1006.9
2023-03-06T00:38:02.533Z,1006.9
2023-03-06T00:39:02.457Z,1006.9
2023-03-06T00:40:02.471Z,1007
2023-03-06T00:41:02.411Z,1006.9
2023-03-06T00:42:02.339Z,1007
2023-03-06T00:43:02.374Z,1007
2023-03-06T00:44:02.293Z,1007
2023-03-06T00:45:02.220Z,1006.9
2023-03-06T00:46:02.494Z,1006.9
2023-03-06T00:47:01.831Z,1006.9
2023-03-06T00:48:01.775Z,1006.9
2023-03-06T00:49:01.803Z,1006.9
2023-03-06T00:50:02.672Z,1006.9
2023-03-06T00:51:02.660Z,1006.9
2023-03-06T00:52:02.617Z,1006.9
2023-03-06T00:53:02.587Z,1006.9
2023-03-06T00:54:02.534Z,1006.9
2023-03-06T00:55:02.556Z,1006.8
2023-03-06T00:56:02.517Z,1006.9
2023-03-06T00:57:02.409Z,1006.9
2023-03-06T00:58:02.391Z,1006.9
2023-03-06T00:59:02.346Z,1006.9
2023-03-06T01:00:02.320Z,1006.9
2023-03-06T01:01:02.470Z,1006.9
2023-03-06T01:02:02.543Z,1006.9
2023-03-06T01:03:02.316Z,1006.9
2023-03-06T01:04:02.310Z,1006.9
2023-03-06T01:05:02.248Z,1006.9
2023-03-06T01:06:02.202Z,1006.9
2023-03-06T01:07:02.166Z,1007
2023-03-06T01:08:02.122Z,1007
2023-03-06T01:09:02.128Z,1007
2023-03-06T01:10:01.974Z,1007
2023-03-06T01:11:01.902Z,1007
2023-03-06T01:12:01.795Z,1007
2023-03-06T01:13:01.752Z,1007
2023-03-06T01:14:01.704Z,1007
2023-03-06T01:15:02.678Z,1007
2023-03-06T01:16:02.736Z,1007
2023-03-06T01:17:02.670Z,1007
2023-03-06T01:18:02.630Z,1007
2023-03-06T01:19:02.575Z,1007
2023-03-06T01:20:02.649Z,1007
2023-03-06T01:21:02.506Z,1007
2023-03-06T01:22:02.483Z,1007
2023-03-06T01:23:02.485Z,1007
2023-03-06T01:24:02.399Z,1007
2023-03-06T01:25:02.397Z,1007
2023-03-06T01:26:02.324Z,1007
2023-03-06T01:27:02.286Z,1007.1
2023-03-06T01:28:02.244Z,1007
2023-03-06T01:29:02.250Z,1007
2023-03-06T01:30:02.149Z,1006.9
2023-03-06T01:31:02.199Z,1006.9
2023-03-06T01:32:02.210Z,1006.8
2023-03-06T01:33:02.012Z,1006.8
2023-03-06T01:34:01.967Z,1006.8
2023-03-06T01:35:01.907Z,1006.8
2023-03-06T01:36:01.840Z,1006.8
2023-03-06T01:37:01.746Z,1006.8
2023-03-06T01:38:01.818Z,1006.8
2023-03-06T01:39:02.655Z,1006.9
2023-03-06T01:40:02.843Z,1006.9
2023-03-06T01:41:02.554Z,1006.9
2023-03-06T01:42:02.489Z,1006.8
2023-03-06T01:43:02.471Z,1006.8
2023-03-06T01:44:02.386Z,1006.8
2023-03-06T01:45:02.413Z,1006.8
2023-03-06T01:46:02.448Z,1006.8
2023-03-06T01:47:02.510Z,1006.8
2023-03-06T01:48:02.398Z,1006.8
2023-03-06T01:49:02.360Z,1006.8
2023-03-06T01:50:02.261Z,1006.8
2023-03-06T01:51:02.307Z,1006.8
2023-03-06T01:52:02.184Z,1006.8
2023-03-06T01:53:02.082Z,1006.7
2023-03-06T01:54:01.965Z,1006.7
2023-03-06T01:55:01.928Z,1006.7
2023-03-06T01:56:01.804Z,1006.7
2023-03-06T01:57:01.740Z,1006.7
2023-03-06T01:58:02.675Z,1006.7
2023-03-06T01:59:02.612Z,1006.7
2023-03-06T02:00:02.638Z,1006.7
2023-03-06T02:01:02.657Z,1006.7
2023-03-06T02:02:02.554Z,1006.6
2023-03-06T02:03:02.402Z,1006.7
2023-03-06T02:04:02.366Z,1006.7
2023-03-06T02:05:02.338Z,1006.7
2023-03-06T02:06:02.303Z,1006.7
2023-03-06T02:07:02.202Z,1006.7
2023-03-06T02:08:02.203Z,1006.7
2023-03-06T02:09:02.166Z,1006.6
2023-03-06T02:10:02.176Z,1006.6
2023-03-06T02:11:01.958Z,1006.6
2023-03-06T02:12:01.925Z,1006.7
2023-03-06T02:13:01.866Z,1006.6
2023-03-06T02:14:01.792Z,1006.6
2023-03-06T02:15:01.779Z,1006.6
2023-03-06T02:16:01.751Z,1006.7
2023-03-06T02:17:02.310Z,1006.8
2023-03-06T02:18:02.150Z,1006.7
2023-03-06T02:19:02.116Z,1006.7
2023-03-06T02:20:02.083Z,1006.8
2023-03-06T02:21:02.035Z,1006.7
2023-03-06T02:22:01.957Z,1006.7
2023-03-06T02:23:01.863Z,1006.7
2023-03-06T02:24:01.787Z,1006.6
2023-03-06T02:25:01.801Z,1006.6
2023-03-06T02:26:02.707Z,1006.6
2023-03-06T02:27:02.701Z,1006.6
2023-03-06T02:28:02.648Z,1006.6
2023-03-06T02:29:02.610Z,1006.6
2023-03-06T02:30:02.518Z,1006.6
2023-03-06T02:31:02.782Z,1006.6
2023-03-06T02:32:02.418Z,1006.6
2023-03-06T02:33:02.272Z,1006.6
2023-03-06T02:34:02.241Z,1006.5
2023-03-06T02:35:02.194Z,1006.6
2023-03-06T02:36:02.501Z,1006.6
2023-03-06T02:37:02.263Z,1006.5
2023-03-06T02:38:02.224Z,1006.5
2023-03-06T02:39:02.194Z,1006.5
2023-03-06T02:40:02.125Z,1006.6
2023-03-06T02:41:02.100Z,1006.6
2023-03-06T02:42:02.048Z,1006.6
2023-03-06T02:43:01.988Z,1006.6
2023-03-06T02:44:01.926Z,1006.5
2023-03-06T02:45:01.810Z,1006.5
2023-03-06T02:46:01.752Z,1006.5
2023-03-06T02:47:02.640Z,1006.6
2023-03-06T02:48:02.630Z,1006.6
2023-03-06T02:49:02.624Z,1006.6
2023-03-06T02:50:02.619Z,1006.6
2023-03-06T02:51:02.562Z,1006.6
2023-03-06T02:52:02.508Z,1006.5
2023-03-06T02:53:02.516Z,1006.6
2023-03-06T02:54:02.456Z,1006.6
2023-03-06T02:55:02.401Z,1006.6
2023-03-06T02:56:02.342Z,1006.6
2023-03-06T02:57:02.261Z,1006.7
2023-03-06T02:58:02.215Z,1006.6
2023-03-06T02:59:02.197Z,1006.6
2023-03-06T03:00:02.204Z,1006.6
2023-03-06T03:01:02.096Z,1006.7
2023-03-06T03:02:02.563Z,1006.6
2023-03-06T03:03:02.586Z,1006.6
2023-03-06T03:04:02.565Z,1006.6
2023-03-06T03:05:02.517Z,1006.6
2023-03-06T03:06:02.402Z,1006.6
2023-03-06T03:07:02.383Z,1006.6
2023-03-06T03:08:02.332Z,1006.5
2023-03-06T03:09:02.281Z,1006.5
2023-03-06T03:10:02.229Z,1006.5
2023-03-06T03:11:02.208Z,1006.6
2023-03-06T03:12:02.152Z,1006.6
2023-03-06T03:13:02.156Z,1006.6
2023-03-06T03:14:02.171Z,1006.6
2023-03-06T03:15:02.079Z,1006.6
2023-03-06T03:16:02.272Z,1006.6
2023-03-06T03:17:02.360Z,1006.5
2023-03-06T03:18:02.313Z,1006.6
2023-03-06T03:19:02.270Z,1006.5
2023-03-06T03:20:02.256Z,1006.4
2023-03-06T03:21:02.333Z,1006.4
2023-03-06T03:22:02.203Z,1006.4
2023-03-06T03:23:02.120Z,1006.4
2023-03-06T03:24:02.143Z,1006.4
2023-03-06T03:25:02.076Z,1006.4
2023-03-06T03:26:02.018Z,1006.4
2023-03-06T03:27:01.894Z,1006.4
2023-03-06T03:28:01.816Z,1006.4
2023-03-06T03:29:01.788Z,1006.4
2023-03-06T03:30:02.716Z,1006.4
2023-03-06T03:31:02.875Z,1006.3
2023-03-06T03:32:01.834Z,1006.3
2023-03-06T03:33:02.708Z,1006.4
2023-03-06T03:34:01.729Z,1006.3
2023-03-06T03:35:02.655Z,1006.4
2023-03-06T03:36:02.595Z,1006.4
2023-03-06T03:37:02.609Z,1006.3
2023-03-06T03:38:02.557Z,1006.3
2023-03-06T03:39:02.538Z,1006.3
2023-03-06T03:40:02.494Z,1006.2
2023-03-06T03:41:02.498Z,1006.3
2023-03-06T03:42:02.416Z,1006.3
2023-03-06T03:43:02.399Z,1006.2
2023-03-06T03:44:02.405Z,1006.2
2023-03-06T03:45:02.321Z,1006.3
2023-03-06T03:46:02.334Z,1006.2
2023-03-06T03:47:02.532Z,1006.1
2023-03-06T03:48:02.514Z,1006.2
2023-03-06T03:49:02.476Z,1006.2
2023-03-06T03:50:02.421Z,1006.2
2023-03-06T03:51:02.347Z,1006.1
2023-03-06T03:52:02.358Z,1006.2
2023-03-06T03:53:02.303Z,1006.2
2023-03-06T03:54:02.260Z,1006.2
2023-03-06T03:55:02.260Z,1006.1
2023-03-06T03:56:02.194Z,1006.1
2023-03-06T03:57:02.222Z,1006.2
2023-03-06T03:58:02.101Z,1006.2
2023-03-06T03:59:02.067Z,1006.1
2023-03-06T04:00:02.028Z,1006.1
2023-03-06T04:01:01.915Z,1006.1
2023-03-06T04:02:01.920Z,1006.2
2023-03-06T04:03:01.746Z,1006.1
2023-03-06T04:04:02.693Z,1006.1
2023-03-06T04:05:02.839Z,1006.1
2023-03-06T04:06:02.602Z,1006.1
2023-03-06T04:07:02.606Z,1006.1
2023-03-06T04:08:02.603Z,1006
2023-03-06T04:09:02.629Z,1006
2023-03-06T04:10:02.584Z,1006.1
2023-03-06T04:11:02.558Z,1006.1
2023-03-06T04:12:02.549Z,1006.1
2023-03-06T04:13:02.511Z,1006.1
2023-03-06T04:14:02.538Z,1006.1
2023-03-06T04:15:02.584Z,1006.1
2023-03-06T04:16:02.656Z,1006
2023-03-06T04:17:02.346Z,1006
2023-03-06T04:18:02.303Z,1006
2023-03-06T04:19:02.234Z,1005.9
2023-03-06T04:20:02.202Z,1005.9
2023-03-06T04:21:02.170Z,1006
2023-03-06T04:22:02.085Z,1006
2023-03-06T04:23:01.974Z,1005.9
2023-03-06T04:24:01.916Z,1005.9
2023-03-06T04:25:01.833Z,1006
2023-03-06T04:26:01.864Z,1005.9
2023-03-06T04:27:02.646Z,1005.9
2023-03-06T04:28:02.608Z,1005.9
2023-03-06T04:29:02.599Z,1005.9
2023-03-06T04:30:02.577Z,1005.9
2023-03-06T04:31:02.953Z,1005.9
2023-03-06T04:32:02.545Z,1005.9
2023-03-06T04:33:02.304Z,1006
2023-03-06T04:34:02.256Z,1005.9
2023-03-06T04:35:02.198Z,1005.9
2023-03-06T04:36:02.161Z,1005.9
2023-03-06T04:37:02.116Z,1005.9
2023-03-06T04:38:02.049Z,1005.9
2023-03-06T04:39:02.199Z,1005.8
2023-03-06T04:40:02.330Z,1005.8
2023-03-06T04:41:02.364Z,1005.8
2023-03-06T04:42:02.410Z,1005.8
2023-03-06T04:43:02.214Z,1005.7
2023-03-06T04:44:02.197Z,1005.7
2023-03-06T04:45:02.124Z,1005.8
2023-03-06T04:46:02.489Z,1005.7
2023-03-06T04:47:02.221Z,1005.8
2023-03-06T04:48:02.286Z,1005.8
2023-03-06T04:49:02.151Z,1005.8
2023-03-06T04:50:02.044Z,1005.8
2023-03-06T04:51:02.019Z,1005.8
2023-03-06T04:52:01.915Z,1005.8
2023-03-06T04:53:02.452Z,1005.9
2023-03-06T04:54:02.180Z,1005.8
2023-03-06T04:55:02.133Z,1005.8
2023-03-06T04:56:02.086Z,1005.8
2023-03-06T04:57:02.100Z,1005.8
2023-03-06T04:58:01.999Z,1005.7
2023-03-06T04:59:01.939Z,1005.8
2023-03-06T05:00:01.832Z,1005.8
2023-03-06T05:01:01.933Z,1005.7
2023-03-06T05:02:02.821Z,1005.7
2023-03-06T05:03:02.645Z,1005.6
2023-03-06T05:04:02.600Z,1005.6
2023-03-06T05:05:02.574Z,1005.6
2023-03-06T05:06:02.575Z,1005.5
2023-03-06T05:07:02.499Z,1005.6
2023-03-06T05:08:02.433Z,1005.6
2023-03-06T05:09:02.429Z,1005.5
2023-03-06T05:10:02.459Z,1005.6
2023-03-06T05:11:02.420Z,1005.6
2023-03-06T05:12:02.368Z,1005.6
2023-03-06T05:13:02.359Z,1005.6
2023-03-06T05:14:02.257Z,1005.6
2023-03-06T05:15:02.231Z,1005.6
2023-03-06T05:16:02.240Z,1005.6
2023-03-06T05:17:02.281Z,1005.6
2023-03-06T05:18:02.253Z,1005.6
2023-03-06T05:19:02.197Z,1005.6
2023-03-06T05:20:02.225Z,1005.6
2023-03-06T05:21:02.187Z,1005.6
2023-03-06T05:22:02.139Z,1005.6
2023-03-06T05:23:02.084Z,1005.6
2023-03-06T05:24:01.980Z,1005.6
2023-03-06T05:25:01.991Z,1005.5
2023-03-06T05:26:01.913Z,1005.6
2023-03-06T05:27:01.843Z,1005.6
2023-03-06T05:28:01.775Z,1005.5
2023-03-06T05:29:02.683Z,1005.6
2023-03-06T05:30:02.627Z,1005.6
2023-03-06T05:31:03.962Z,1005.6
2023-03-06T05:32:02.768Z,1005.5
2023-03-06T05:33:02.617Z,1005.5
2023-03-06T05:34:02.501Z,1005.5
2023-03-06T05:35:02.456Z,1005.5
2023-03-06T05:36:02.437Z,1005.5
2023-03-06T05:37:02.366Z,1005.5
2023-03-06T05:38:02.317Z,1005.5
2023-03-06T05:39:02.312Z,1005.5
2023-03-06T05:40:02.218Z,1005.5
2023-03-06T05:41:02.236Z,1005.5
2023-03-06T05:42:02.187Z,1005.5
2023-03-06T05:43:02.154Z,1005.5
2023-03-06T05:44:02.081Z,1005.5
2023-03-06T05:45:02.084Z,1005.5
2023-03-06T05:46:02.085Z,1005.5
2023-03-06T05:47:01.820Z,1005.5
2023-03-06T05:48:01.763Z,1005.5
2023-03-06T05:49:02.736Z,1005.5
2023-03-06T05:50:02.644Z,1005.5
2023-03-06T05:51:02.593Z,1005.5
2023-03-06T05:52:02.559Z,1005.5
2023-03-06T05:53:02.516Z,1005.5
2023-03-06T05:54:02.455Z,1005.5
2023-03-06T05:55:02.439Z,1005.5
2023-03-06T05:56:02.415Z,1005.5
2023-03-06T05:57:02.352Z,1005.6
2023-03-06T05:58:02.331Z,1005.5
2023-03-06T05:59:02.265Z,1005.6
2023-03-06T06:00:01.929Z,1005.6
2023-03-06T06:01:01.900Z,1005.6
2023-03-06T06:02:02.517Z,1005.6
2023-03-06T06:03:02.428Z,1005.5
2023-03-06T06:04:02.408Z,1005.6
2023-03-06T06:05:02.444Z,1005.6
2023-03-06T06:06:02.384Z,1005.6
2023-03-06T06:07:02.393Z,1005.6
2023-03-06T06:08:02.423Z,1005.6
2023-03-06T06:09:02.388Z,1005.6
2023-03-06T06:10:04.304Z,1005.5
2023-03-06T06:11:01.988Z,1005.5
2023-03-06T06:12:01.975Z,1005.5
2023-03-06T06:13:01.885Z,1005.5
2023-03-06T06:14:01.787Z,1005.6
2023-03-06T06:15:01.765Z,1005.5
2023-03-06T06:16:01.903Z,1005.5
2023-03-06T06:17:02.650Z,1005.5
2023-03-06T06:18:02.624Z,1005.6
2023-03-06T06:19:02.604Z,1005.5
2023-03-06T06:20:02.571Z,1005.5
2023-03-06T06:21:02.501Z,1005.5
2023-03-06T06:22:02.476Z,1005.6
2023-03-06T06:23:02.371Z,1005.6
2023-03-06T06:24:02.374Z,1005.5
2023-03-06T06:25:02.298Z,1005.5
2023-03-06T06:26:02.277Z,1005.6
2023-03-06T06:27:04.492Z,1005.6
2023-03-06T06:28:02.213Z,1005.6
2023-03-06T06:29:02.145Z,1005.5
2023-03-06T06:30:02.111Z,1005.5
2023-03-06T06:31:02.013Z,1005.6
2023-03-06T06:32:01.988Z,1005.6
2023-03-06T06:33:01.743Z,1005.6
2023-03-06T06:34:01.746Z,1005.5
2023-03-06T06:35:02.717Z,1005.6
2023-03-06T06:36:02.664Z,1005.5
2023-03-06T06:37:02.662Z,1005.6
2023-03-06T06:38:02.558Z,1005.6
2023-03-06T06:39:02.597Z,1005.6
2023-03-06T06:40:02.539Z,1005.7
2023-03-06T06:42:15.346Z,1005.6
2023-03-06T06:42:39.168Z,1005.6
2023-03-06T06:43:02.410Z,1005.6
2023-03-06T06:44:02.399Z,1005.6
2023-03-06T06:45:02.353Z,1005.6
2023-03-06T06:47:23.349Z,1005.7
2023-03-06T06:47:26.307Z,1005.7
2023-03-06T06:48:02.374Z,1005.7
2023-03-06T06:49:02.263Z,1005.6
2023-03-06T06:50:02.117Z,1005.6
2023-03-06T06:51:02.124Z,1005.6
2023-03-06T06:52:01.922Z,1005.7
2023-03-06T06:53:01.866Z,1005.6
2023-03-06T06:54:01.729Z,1005.6
2023-03-06T06:55:01.814Z,1005.5
2023-03-06T06:56:02.719Z,1005.6
2023-03-06T06:57:02.658Z,1005.6
2023-03-06T06:58:02.564Z,1005.6
2023-03-06T06:59:17.814Z,1005.5
2023-03-06T07:00:02.586Z,1005.6
2023-03-06T07:01:02.635Z,1005.6
2023-03-06T07:02:01.747Z,1005.6
2023-03-06T07:03:02.775Z,1005.6
2023-03-06T07:04:02.764Z,1005.6
2023-03-06T07:05:06.077Z,1005.7
2023-03-06T07:06:01.843Z,1005.6
2023-03-06T07:07:01.845Z,1005.7
2023-03-06T07:08:02.819Z,1005.6
2023-03-06T07:09:02.666Z,1005.7
2023-03-06T07:10:02.779Z,1005.7
2023-03-06T07:11:02.596Z,1005.7
2023-03-06T07:12:02.661Z,1005.6
2023-03-06T07:13:02.490Z,1005.6
2023-03-06T07:14:02.565Z,1005.8
2023-03-06T07:15:02.940Z,1005.7
2023-03-06T07:16:01.882Z,1005.7
2023-03-06T07:17:01.729Z,1005.7
2023-03-06T07:18:02.791Z,1005.7
2023-03-06T07:19:02.675Z,1005.7
2023-03-06T07:20:02.864Z,1005.6
2023-03-06T07:21:02.639Z,1005.7
2023-03-06T07:22:02.643Z,1005.7
2023-03-06T07:23:02.500Z,1005.7
2023-03-06T07:24:02.511Z,1005.6
2023-03-06T07:25:02.472Z,1005.7
2023-03-06T07:26:02.361Z,1005.7
2023-03-06T07:27:02.341Z,1005.7
2023-03-06T07:28:02.594Z,1005.7
2023-03-06T07:29:02.385Z,1005.7
2023-03-06T07:30:02.365Z,1005.7
2023-03-06T07:31:02.513Z,1005.7
2023-03-06T07:32:02.990Z,1005.7
2023-03-06T07:33:01.895Z,1005.7
2023-03-06T07:34:05.453Z,1005.7
2023-03-06T07:35:21.154Z,1005.7
2023-03-06T07:36:02.080Z,1005.7
2023-03-06T07:37:01.951Z,1005.6
2023-03-06T07:38:01.800Z,1005.7
2023-03-06T07:39:01.948Z,1005.7
2023-03-06T07:40:01.730Z,1005.7
2023-03-06T07:41:02.761Z,1005.7
2023-03-06T07:42:02.647Z,1005.8
2023-03-06T07:43:20.046Z,1005.7
2023-03-06T07:44:01.754Z,1005.8
2023-03-06T07:45:01.916Z,1005.7
2023-03-06T07:46:02.774Z,1005.7
2023-03-06T07:47:01.816Z,1005.8
2023-03-06T07:48:01.807Z,1005.7
2023-03-06T07:49:01.759Z,1005.8
2023-03-06T07:50:02.697Z,1005.7
2023-03-06T07:51:02.621Z,1005.7
2023-03-06T07:52:02.712Z,1005.8
2023-03-06T07:53:02.546Z,1005.8
2023-03-06T07:54:02.664Z,1005.8
2023-03-06T07:55:02.489Z,1005.7
2023-03-06T07:56:02.508Z,1005.7
2023-03-06T07:57:02.743Z,1005.8
2023-03-06T07:58:02.485Z,1005.8
2023-03-06T07:59:02.593Z,1005.7
2023-03-06T08:00:02.490Z,1005.8
2023-03-06T08:01:02.514Z,1005.7
2023-03-06T08:02:02.450Z,1005.8
2023-03-06T08:03:02.453Z,1005.8
2023-03-06T08:04:02.805Z,1005.8
2023-03-06T08:05:02.682Z,1005.8
2023-03-06T08:06:02.750Z,1005.8
2023-03-06T08:07:02.683Z,1005.7
2023-03-06T08:08:02.600Z,1005.9
2023-03-06T08:09:02.709Z,1005.8
2023-03-06T08:10:02.559Z,1005.8
2023-03-06T08:11:02.540Z,1005.8
2023-03-06T08:12:02.659Z,1005.8
2023-03-06T08:13:02.543Z,1005.7
2023-03-06T08:14:02.462Z,1005.8
2023-03-06T08:15:02.276Z,1005.7
2023-03-06T08:16:02.501Z,1005.8
2023-03-06T08:17:02.476Z,1005.8
2023-03-06T08:18:02.337Z,1005.9
2023-03-06T08:19:02.328Z,1005.8
2023-03-06T08:20:02.278Z,1005.7
2023-03-06T08:21:02.118Z,1005.7
2023-03-06T08:22:02.175Z,1005.8
2023-03-06T08:23:02.057Z,1005.7
2023-03-06T08:24:02.004Z,1005.7
2023-03-06T08:25:01.825Z,1005.8
2023-03-06T08:26:01.931Z,1005.7
2023-03-06T08:27:01.761Z,1005.7
2023-03-06T08:28:02.819Z,1005.7
2023-03-06T08:29:02.682Z,1005.7
2023-03-06T08:30:02.768Z,1005.8
2023-03-06T08:31:02.600Z,1005.8
2023-03-06T08:32:02.133Z,1005.8
2023-03-06T08:33:02.014Z,1005.7
2023-03-06T08:34:01.926Z,1005.7
2023-03-06T08:35:01.796Z,1005.8
2023-03-06T08:36:03.085Z,1005.8
2023-03-06T08:37:01.819Z,1005.7
2023-03-06T08:38:01.864Z,1005.8
2023-03-06T08:39:01.732Z,1005.8
2023-03-06T08:40:02.806Z,1005.8
2023-03-06T08:41:02.636Z,1005.9
2023-03-06T08:42:02.700Z,1005.8
2023-03-06T08:43:02.581Z,1005.8
2023-03-06T08:44:02.624Z,1005.8
2023-03-06T08:45:02.525Z,1005.8
2023-03-06T08:46:02.785Z,1005.7
2023-03-06T08:47:02.538Z,1005.8
2023-03-06T08:48:02.793Z,1005.9
2023-03-06T08:49:02.606Z,1005.8
2023-03-06T08:50:02.658Z,1005.8
2023-03-06T08:51:02.526Z,1005.8
2023-03-06T08:52:02.604Z,1005.8
2023-03-06T08:53:02.471Z,1005.9
2023-03-06T08:54:02.554Z,1005.8
2023-03-06T08:55:02.414Z,1005.9
2023-03-06T08:56:02.398Z,1005.8
2023-03-06T08:57:02.360Z,1005.9
2023-03-06T08:58:02.312Z,1005.8
2023-03-06T08:59:02.240Z,1005.9
2023-03-06T09:00:02.109Z,1006
2023-03-06T09:01:02.388Z,1005.9
2023-03-06T09:02:02.390Z,1005.9
2023-03-06T09:03:02.196Z,1005.9
2023-03-06T09:04:02.231Z,1005.9
2023-03-06T09:05:02.074Z,1005.9
2023-03-06T09:06:02.068Z,1005.9
2023-03-06T09:07:01.946Z,1005.9
2023-03-06T09:08:02.000Z,1005.9
2023-03-06T09:09:01.864Z,1006
2023-03-06T09:10:01.870Z,1005.9
2023-03-06T09:11:02.761Z,1005.9
2023-03-06T09:12:02.650Z,1005.9
2023-03-06T09:13:02.691Z,1005.9
2023-03-06T09:14:02.541Z,1005.9
2023-03-06T09:15:02.604Z,1005.9
2023-03-06T09:16:02.408Z,1005.9
2023-03-06T09:17:02.383Z,1005.9
2023-03-06T09:18:02.638Z,1005.9
2023-03-06T09:19:02.483Z,1005.9
2023-03-06T09:20:02.420Z,1005.9
2023-03-06T09:21:02.335Z,1005.8
2023-03-06T09:22:02.328Z,1005.8
2023-03-06T09:23:02.156Z,1005.9
2023-03-06T09:24:02.213Z,1005.8
2023-03-06T09:25:02.051Z,1005.8
2023-03-06T09:26:02.158Z,1005.8
2023-03-06T09:27:01.872Z,1005.9
2023-03-06T09:28:12.505Z,1005.9
2023-03-06T09:29:02.379Z,1005.8
2023-03-06T09:30:02.154Z,1005.8
2023-03-06T09:31:02.475Z,1005.8
2023-03-06T09:32:01.914Z,1005.9
2023-03-06T09:33:01.754Z,1005.8
2023-03-06T09:34:02.768Z,1005.8
2023-03-06T09:35:02.648Z,1005.8
2023-03-06T09:36:02.683Z,1005.8
2023-03-06T09:37:02.573Z,1005.8
2023-03-06T09:38:02.586Z,1005.8
2023-03-06T09:39:02.420Z,1005.8
2023-03-06T09:40:02.530Z,1005.8
2023-03-06T09:41:02.381Z,1005.8
2023-03-06T09:42:02.185Z,1005.8
2023-03-06T09:43:02.234Z,1005.9
2023-03-06T09:44:02.046Z,1005.8
2023-03-06T09:45:02.177Z,1005.8
2023-03-06T09:46:02.117Z,1005.9
2023-03-06T09:47:01.793Z,1005.8
2023-03-06T09:48:01.792Z,1005.7
2023-03-06T09:49:01.922Z,1005.8
2023-03-06T09:50:02.784Z,1005.8
2023-03-06T09:51:02.682Z,1005.7
2023-03-06T09:52:02.812Z,1005.8
2023-03-06T09:53:02.536Z,1005.8
2023-03-06T09:54:02.612Z,1005.7
2023-03-06T09:55:02.516Z,1005.8
2023-03-06T09:56:02.358Z,1005.7
2023-03-06T09:57:02.365Z,1005.8
2023-03-06T09:58:02.329Z,1005.8
2023-03-06T09:59:02.141Z,1005.8
2023-03-06T10:00:04.957Z,1005.7
2023-03-06T10:01:02.828Z,1005.8
2023-03-06T10:02:02.177Z,1005.6
2023-03-06T10:03:02.465Z,1005.8
2023-03-06T10:04:02.376Z,1005.7
2023-03-06T10:05:02.475Z,1005.8
2023-03-06T10:06:03.234Z,1005.7
2023-03-06T10:07:01.958Z,1005.7
2023-03-06T10:08:02.020Z,1005.7
2023-03-06T10:09:01.790Z,1005.9
2023-03-06T10:10:01.883Z,1005.8
2023-03-06T10:11:02.756Z,1005.8
2023-03-06T10:12:02.803Z,1005.8
2023-03-06T10:13:02.627Z,1005.8
2023-03-06T10:14:02.521Z,1005.9
2023-03-06T10:15:02.580Z,1005.7
2023-03-06T10:16:02.572Z,1005.8
2023-03-06T10:17:02.525Z,1005.7
2023-03-06T10:18:02.614Z,1005.7
2023-03-06T10:19:02.470Z,1005.7
2023-03-06T10:20:02.564Z,1005.7
2023-03-06T10:21:19.889Z,1005.7
2023-03-06T10:22:02.636Z,1005.7
2023-03-06T10:23:05.794Z,1005.7
2023-03-06T10:24:02.544Z,1005.7
2023-03-06T10:25:02.605Z,1005.7
2023-03-06T10:26:02.897Z,1005.6
2023-03-06T10:27:02.860Z,1005.6
2023-03-06T10:28:02.766Z,1005.6
2023-03-06T10:29:02.702Z,1005.5
2023-03-06T10:30:04.793Z,1005.6
2023-03-06T10:31:02.645Z,1005.6
2023-03-06T10:32:02.691Z,1005.6
2023-03-06T10:33:02.804Z,1005.6
2023-03-06T10:34:02.553Z,1005.5
2023-03-06T10:35:03.008Z,1005.6
2023-03-06T10:36:01.888Z,1005.6
2023-03-06T10:37:01.796Z,1005.6
2023-03-06T10:38:02.738Z,1005.5
2023-03-06T10:39:02.614Z,1005.5
2023-03-06T10:40:02.700Z,1005.5
2023-03-06T10:41:02.571Z,1005.5
2023-03-06T10:42:02.598Z,1005.5
2023-03-06T10:43:12.744Z,1005.5
2023-03-06T10:44:02.483Z,1005.5
2023-03-06T10:45:02.589Z,1005.5
2023-03-06T10:46:02.588Z,1005.3
2023-03-06T10:47:02.338Z,1005.4
2023-03-06T10:48:02.391Z,1005.4
2023-03-06T10:49:02.754Z,1005.4
2023-03-06T10:50:02.632Z,1005.4
2023-03-06T10:51:19.097Z,1005.3
2023-03-06T10:52:01.910Z,1005.3
2023-03-06T10:53:01.943Z,1005.4
2023-03-06T10:54:01.748Z,1005.4
2023-03-06T10:55:01.858Z,1005.3
2023-03-06T10:56:03.030Z,1005.3
2023-03-06T10:57:01.820Z,1005.2
2023-03-06T10:58:01.858Z,1005.3
2023-03-06T10:59:01.735Z,1005.3
2023-03-06T11:00:02.809Z,1005.3
2023-03-06T11:01:02.632Z,1005.3
2023-03-06T11:02:02.735Z,1005.3
2023-03-06T11:03:02.667Z,1005.3
2023-03-06T11:04:02.481Z,1005.2
2023-03-06T11:05:02.758Z,1005.2
2023-03-06T11:06:02.593Z,1005.3
2023-03-06T11:07:02.483Z,1005.2
2023-03-06T11:08:02.518Z,1005.2
2023-03-06T11:09:02.421Z,1005.2
2023-03-06T11:10:02.323Z,1005.2
2023-03-06T11:11:02.365Z,1005.1
2023-03-06T11:12:02.277Z,1005.1
2023-03-06T11:13:02.151Z,1005.1
2023-03-06T11:14:02.194Z,1005.1
2023-03-06T11:15:02.203Z,1005
2023-03-06T11:16:02.235Z,1005.1
2023-03-06T11:17:01.810Z,1005
2023-03-06T11:18:01.854Z,1005
2023-03-06T11:19:01.766Z,1005
2023-03-06T11:20:01.785Z,1005
2023-03-06T11:21:02.783Z,1005
2023-03-06T11:22:02.597Z,1005
2023-03-06T11:23:02.630Z,1005.1
2023-03-06T11:24:02.513Z,1005
2023-03-06T11:25:02.774Z,1005
2023-03-06T11:26:02.674Z,1005
2023-03-06T11:27:02.485Z,1004.9
2023-03-06T11:28:02.530Z,1004.9
2023-03-06T11:29:02.742Z,1004.9
2023-03-06T11:30:02.542Z,1004.9
2023-03-06T11:31:02.752Z,1005
2023-03-06T11:32:02.662Z,1004.9
2023-03-06T11:33:02.448Z,1004.9
2023-03-06T11:34:02.492Z,1005
2023-03-06T11:35:02.734Z,1004.9
2023-03-06T11:36:02.494Z,1004.9
2023-03-06T11:37:02.535Z,1004.8
2023-03-06T11:38:02.396Z,1004.9
2023-03-06T11:39:02.298Z,1004.8
2023-03-06T11:40:02.329Z,1004.8
2023-03-06T11:41:02.202Z,1004.8
2023-03-06T11:42:02.128Z,1004.8
2023-03-06T11:43:02.111Z,1004.7
2023-03-06T11:44:01.933Z,1004.8
2023-03-06T11:45:03.772Z,1004.8
2023-03-06T11:46:02.665Z,1004.8
2023-03-06T11:47:02.658Z,1004.8
2023-03-06T11:48:02.521Z,1004.7
2023-03-06T11:49:02.480Z,1004.7
2023-03-06T11:50:02.566Z,1004.7
2023-03-06T11:51:02.749Z,1004.8
2023-03-06T11:52:01.978Z,1004.7
2023-03-06T11:53:02.023Z,1004.8
2023-03-06T11:54:01.805Z,1004.7
2023-03-06T11:55:02.095Z,1004.7
2023-03-06T11:56:01.948Z,1004.7
2023-03-06T11:57:01.912Z,1004.6
2023-03-06T11:58:01.785Z,1004.6
2023-03-06T11:59:01.801Z,1004.6
2023-03-06T12:00:01.704Z,1004.6
2023-03-06T12:01:01.746Z,1004.6
2023-03-06T12:02:02.704Z,1004.6
2023-03-06T12:03:02.470Z,1004.5
2023-03-06T12:04:02.445Z,1004.6
2023-03-06T12:05:02.924Z,1004.6
2023-03-06T12:06:01.771Z,1004.6
2023-03-06T12:07:02.782Z,1004.5
2023-03-06T12:08:02.698Z,1004.5
2023-03-06T12:09:02.687Z,1004.6
2023-03-06T12:10:02.520Z,1004.5
2023-03-06T12:11:02.582Z,1004.5
2023-03-06T12:12:02.401Z,1004.4
2023-03-06T12:13:02.492Z,1004.4
2023-03-06T12:14:04.786Z,1004.4
2023-03-06T12:15:02.570Z,1004.4
2023-03-06T12:16:02.571Z,1004.4
2023-03-06T12:17:02.254Z,1004.3
2023-03-06T12:18:02.275Z,1004.4
2023-03-06T12:19:02.036Z,1004.3
2023-03-06T12:20:02.103Z,1004.4
2023-03-06T12:21:01.952Z,1004.3
2023-03-06T12:22:01.906Z,1004.3
2023-03-06T12:23:16.208Z,1004.3
2023-03-06T12:24:01.955Z,1004.2
2023-03-06T12:25:02.686Z,1004.3
2023-03-06T12:26:02.572Z,1004.2
2023-03-06T12:27:02.377Z,1004.2
2023-03-06T12:28:02.400Z,1004.2
2023-03-06T12:29:02.406Z,1004.2
2023-03-06T12:30:02.311Z,1004.1
2023-03-06T12:31:02.255Z,1004.2